sensor_id;sensor_type;location;lat;lon;timestamp;P1;durP1;ratioP1;P2;durP2;ratioP2
76725;SDS011;65651;53.154;17.916;2023-04-03T00:01:22;9.70;;;1.80;;
76725;SDS011;65651;53.154;17.916;2023-04-03T00:03:49;5.40;;;1.00;;
76725;SDS011;65651;53.154;17.916;2023-04-03T00:06:16;4.90;;;1.00;;
76725;SDS011;65651;53.154;17.916;2023-04-03T00:08:44;4.10;;;1.00;;
76725;SDS011;65651;53.154;17.916;2023-04-03T00:11:11;7.20;;;1.10;;
76725;SDS011;65651;53.154;17.916;2023-04-03T00:13:38;8.40;;;1.80;;
76725;SDS011;65651;53.154;17.916;2023-04-03T00:16:10;3.90;;;0.90;;
76725;SDS011;65651;53.154;17.916;2023-04-03T00:18:39;10.50;;;1.30;;
76725;SDS011;65651;53.154;17.916;2023-04-03T00:21:07;10.60;;;2.00;;
76725;SDS011;65651;53.154;17.916;2023-04-03T00:23:36;4.00;;;1.10;;
76725;SDS011;65651;53.154;17.916;2023-04-03T00:26:04;5.50;;;1.40;;
76725;SDS011;65651;53.154;17.916;2023-04-03T00:28:31;4.90;;;0.70;;
76725;SDS011;65651;53.154;17.916;2023-04-03T00:30:59;4.30;;;0.80;;
76725;SDS011;65651;53.154;17.916;2023-04-03T00:33:26;3.90;;;1.00;;
76725;SDS011;65651;53.154;17.916;2023-04-03T00:35:53;3.30;;;1.00;;
76725;SDS011;65651;53.154;17.916;2023-04-03T00:38:21;12.10;;;1.80;;
76725;SDS011;65651;53.154;17.916;2023-04-03T00:40:49;6.50;;;1.60;;
76725;SDS011;65651;53.154;17.916;2023-04-03T00:43:18;6.30;;;1.50;;
76725;SDS011;65651;53.154;17.916;2023-04-03T00:45:51;6.90;;;1.40;;
76725;SDS011;65651;53.154;17.916;2023-04-03T00:48:21;6.90;;;1.10;;
76725;SDS011;65651;53.154;17.916;2023-04-03T00:50:52;2.90;;;0.60;;
76725;SDS011;65651;53.154;17.916;2023-04-03T00:53:55;11.70;;;1.00;;
76725;SDS011;65651;53.154;17.916;2023-04-03T00:56:28;7.40;;;1.20;;
76725;SDS011;65651;53.154;17.916;2023-04-03T00:58:59;3.60;;;1.00;;
76725;SDS011;65651;53.154;17.916;2023-04-03T01:01:33;4.50;;;1.10;;
76725;SDS011;65651;53.154;17.916;2023-04-03T01:04:01;11.20;;;2.30;;
76725;SDS011;65651;53.154;17.916;2023-04-03T01:06:34;8.40;;;1.10;;
76725;SDS011;65651;53.154;17.916;2023-04-03T01:09:12;5.80;;;1.10;;
76725;SDS011;65651;53.154;17.916;2023-04-03T01:11:39;5.70;;;1.00;;
76725;SDS011;65651;53.154;17.916;2023-04-03T01:14:07;8.10;;;1.70;;
76725;SDS011;65651;53.154;17.916;2023-04-03T01:16:34;6.80;;;1.30;;
76725;SDS011;65651;53.154;17.916;2023-04-03T01:19:02;3.10;;;0.60;;
76725;SDS011;65651;53.154;17.916;2023-04-03T01:27:09;4.10;;;0.70;;
76725;SDS011;65651;53.154;17.916;2023-04-03T01:29:37;7.60;;;1.70;;
76725;SDS011;65651;53.154;17.916;2023-04-03T01:32:05;8.40;;;1.00;;
76725;SDS011;65651;53.154;17.916;2023-04-03T01:34:33;2.30;;;1.00;;
76725;SDS011;65651;53.154;17.916;2023-04-03T01:37:01;3.50;;;0.50;;
76725;SDS011;65651;53.154;17.916;2023-04-03T01:39:28;2.90;;;1.10;;
76725;SDS011;65651;53.154;17.916;2023-04-03T01:41:58;9.90;;;1.30;;
76725;SDS011;65651;53.154;17.916;2023-04-03T01:44:34;3.90;;;1.10;;
76725;SDS011;65651;53.154;17.916;2023-04-03T01:47:05;5.80;;;1.00;;
76725;SDS011;65651;53.154;17.916;2023-04-03T01:49:34;10.10;;;2.00;;
76725;SDS011;65651;53.154;17.916;2023-04-03T01:52:02;8.20;;;1.50;;
76725;SDS011;65651;53.154;17.916;2023-04-03T01:54:29;11.40;;;1.40;;
76725;SDS011;65651;53.154;17.916;2023-04-03T01:56:56;8.30;;;2.50;;
76725;SDS011;65651;53.154;17.916;2023-04-03T01:59:23;8.00;;;1.50;;
76725;SDS011;65651;53.154;17.916;2023-04-03T02:01:51;4.40;;;1.20;;
76725;SDS011;65651;53.154;17.916;2023-04-03T02:04:18;6.30;;;1.50;;
76725;SDS011;65651;53.154;17.916;2023-04-03T02:06:46;2.50;;;0.50;;
76725;SDS011;65651;53.154;17.916;2023-04-03T02:09:13;5.00;;;0.60;;
76725;SDS011;65651;53.154;17.916;2023-04-03T02:11:41;10.00;;;1.10;;
76725;SDS011;65651;53.154;17.916;2023-04-03T02:14:08;6.20;;;1.40;;
76725;SDS011;65651;53.154;17.916;2023-04-03T02:16:35;4.80;;;1.90;;
76725;SDS011;65651;53.154;17.916;2023-04-03T02:19:02;7.00;;;1.30;;
76725;SDS011;65651;53.154;17.916;2023-04-03T02:21:30;5.20;;;1.50;;
76725;SDS011;65651;53.154;17.916;2023-04-03T02:24:00;6.40;;;2.60;;
76725;SDS011;65651;53.154;17.916;2023-04-03T02:26:28;5.60;;;1.50;;
76725;SDS011;65651;53.154;17.916;2023-04-03T02:28:55;7.60;;;2.00;;
76725;SDS011;65651;53.154;17.916;2023-04-03T02:31:22;9.70;;;1.80;;
76725;SDS011;65651;53.154;17.916;2023-04-03T02:33:51;8.30;;;2.00;;
76725;SDS011;65651;53.154;17.916;2023-04-03T02:36:18;6.40;;;1.40;;
76725;SDS011;65651;53.154;17.916;2023-04-03T02:38:51;7.80;;;3.00;;
76725;SDS011;65651;53.154;17.916;2023-04-03T02:41:18;41.50;;;11.30;;
76725;SDS011;65651;53.154;17.916;2023-04-03T02:43:45;56.50;;;15.60;;
76725;SDS011;65651;53.154;17.916;2023-04-03T02:46:15;40.00;;;12.00;;
76725;SDS011;65651;53.154;17.916;2023-04-03T02:48:42;12.70;;;3.50;;
76725;SDS011;65651;53.154;17.916;2023-04-03T02:51:10;7.80;;;1.60;;
76725;SDS011;65651;53.154;17.916;2023-04-03T02:53:38;10.40;;;2.30;;
76725;SDS011;65651;53.154;17.916;2023-04-03T02:56:10;5.20;;;1.20;;
76725;SDS011;65651;53.154;17.916;2023-04-03T02:58:37;5.20;;;1.00;;
76725;SDS011;65651;53.154;17.916;2023-04-03T03:01:05;6.30;;;1.20;;
76725;SDS011;65651;53.154;17.916;2023-04-03T03:03:33;4.50;;;1.30;;
76725;SDS011;65651;53.154;17.916;2023-04-03T03:06:07;9.30;;;1.30;;
76725;SDS011;65651;53.154;17.916;2023-04-03T03:08:36;5.00;;;1.70;;
76725;SDS011;65651;53.154;17.916;2023-04-03T03:11:05;7.50;;;2.30;;
76725;SDS011;65651;53.154;17.916;2023-04-03T03:13:33;5.50;;;1.30;;
76725;SDS011;65651;53.154;17.916;2023-04-03T03:16:01;8.40;;;2.40;;
76725;SDS011;65651;53.154;17.916;2023-04-03T03:18:29;19.60;;;1.90;;
76725;SDS011;65651;53.154;17.916;2023-04-03T03:20:58;11.90;;;2.00;;
76725;SDS011;65651;53.154;17.916;2023-04-03T03:23:27;9.80;;;1.80;;
76725;SDS011;65651;53.154;17.916;2023-04-03T03:25:56;11.10;;;1.90;;
76725;SDS011;65651;53.154;17.916;2023-04-03T03:28:28;6.00;;;1.90;;
76725;SDS011;65651;53.154;17.916;2023-04-03T03:30:57;8.40;;;1.50;;
76725;SDS011;65651;53.154;17.916;2023-04-03T03:33:26;7.80;;;2.20;;
76725;SDS011;65651;53.154;17.916;2023-04-03T03:35:54;10.90;;;2.00;;
76725;SDS011;65651;53.154;17.916;2023-04-03T03:38:21;11.10;;;2.80;;
76725;SDS011;65651;53.154;17.916;2023-04-03T03:40:50;12.00;;;2.40;;
76725;SDS011;65651;53.154;17.916;2023-04-03T03:43:20;8.40;;;3.00;;
76725;SDS011;65651;53.154;17.916;2023-04-03T03:45:51;6.20;;;2.50;;
76725;SDS011;65651;53.154;17.916;2023-04-03T03:48:19;11.30;;;3.20;;
76725;SDS011;65651;53.154;17.916;2023-04-03T03:50:48;9.10;;;3.60;;
76725;SDS011;65651;53.154;17.916;2023-04-03T03:53:15;11.50;;;3.30;;
76725;SDS011;65651;53.154;17.916;2023-04-03T03:55:44;12.90;;;3.80;;
76725;SDS011;65651;53.154;17.916;2023-04-03T03:58:11;9.50;;;3.50;;
76725;SDS011;65651;53.154;17.916;2023-04-03T04:00:39;13.30;;;2.40;;
76725;SDS011;65651;53.154;17.916;2023-04-03T04:03:06;12.90;;;3.60;;
76725;SDS011;65651;53.154;17.916;2023-04-03T04:05:33;11.20;;;2.70;;
76725;SDS011;65651;53.154;17.916;2023-04-03T04:08:01;11.00;;;4.10;;
76725;SDS011;65651;53.154;17.916;2023-04-03T04:10:28;13.70;;;3.60;;
76725;SDS011;65651;53.154;17.916;2023-04-03T04:12:56;11.30;;;3.20;;
76725;SDS011;65651;53.154;17.916;2023-04-03T04:15:24;12.60;;;3.00;;
76725;SDS011;65651;53.154;17.916;2023-04-03T04:17:52;10.10;;;3.30;;
76725;SDS011;65651;53.154;17.916;2023-04-03T04:20:20;12.40;;;2.60;;
76725;SDS011;65651;53.154;17.916;2023-04-03T04:22:48;10.90;;;3.00;;
76725;SDS011;65651;53.154;17.916;2023-04-03T04:25:16;9.40;;;3.10;;
76725;SDS011;65651;53.154;17.916;2023-04-03T04:27:43;11.80;;;3.00;;
76725;SDS011;65651;53.154;17.916;2023-04-03T04:30:11;9.40;;;3.10;;
76725;SDS011;65651;53.154;17.916;2023-04-03T04:32:39;10.30;;;2.90;;
76725;SDS011;65651;53.154;17.916;2023-04-03T04:35:07;8.80;;;2.80;;
76725;SDS011;65651;53.154;17.916;2023-04-03T04:37:36;11.60;;;3.80;;
76725;SDS011;65651;53.154;17.916;2023-04-03T04:40:04;9.10;;;2.70;;
76725;SDS011;65651;53.154;17.916;2023-04-03T04:42:32;13.80;;;3.30;;
76725;SDS011;65651;53.154;17.916;2023-04-03T04:44:59;16.60;;;3.80;;
76725;SDS011;65651;53.154;17.916;2023-04-03T04:47:28;11.00;;;3.30;;
76725;SDS011;65651;53.154;17.916;2023-04-03T04:49:56;10.70;;;4.20;;
76725;SDS011;65651;53.154;17.916;2023-04-03T04:52:24;16.00;;;3.70;;
76725;SDS011;65651;53.154;17.916;2023-04-03T04:54:54;8.10;;;4.90;;
76725;SDS011;65651;53.154;17.916;2023-04-03T04:57:22;10.40;;;4.80;;
76725;SDS011;65651;53.154;17.916;2023-04-03T04:59:49;8.90;;;5.00;;
76725;SDS011;65651;53.154;17.916;2023-04-03T05:02:17;11.90;;;4.50;;
76725;SDS011;65651;53.154;17.916;2023-04-03T05:04:44;9.10;;;3.50;;
76725;SDS011;65651;53.154;17.916;2023-04-03T05:07:16;9.20;;;3.80;;
76725;SDS011;65651;53.154;17.916;2023-04-03T05:09:43;14.80;;;3.90;;
76725;SDS011;65651;53.154;17.916;2023-04-03T05:12:11;6.80;;;3.40;;
76725;SDS011;65651;53.154;17.916;2023-04-03T05:14:42;9.10;;;2.90;;
76725;SDS011;65651;53.154;17.916;2023-04-03T05:17:11;5.60;;;2.60;;
76725;SDS011;65651;53.154;17.916;2023-04-03T05:19:45;6.70;;;2.30;;
76725;SDS011;65651;53.154;17.916;2023-04-03T05:22:13;8.00;;;2.30;;
76725;SDS011;65651;53.154;17.916;2023-04-03T05:24:40;4.80;;;2.50;;
76725;SDS011;65651;53.154;17.916;2023-04-03T05:27:07;5.60;;;2.70;;
76725;SDS011;65651;53.154;17.916;2023-04-03T05:29:39;4.30;;;2.70;;
76725;SDS011;65651;53.154;17.916;2023-04-03T05:32:11;6.50;;;2.20;;
76725;SDS011;65651;53.154;17.916;2023-04-03T05:34:38;6.90;;;3.20;;
76725;SDS011;65651;53.154;17.916;2023-04-03T05:37:06;5.80;;;3.40;;
76725;SDS011;65651;53.154;17.916;2023-04-03T05:39:33;6.80;;;3.70;;
76725;SDS011;65651;53.154;17.916;2023-04-03T05:42:03;6.30;;;3.40;;
76725;SDS011;65651;53.154;17.916;2023-04-03T05:44:31;5.70;;;2.90;;
76725;SDS011;65651;53.154;17.916;2023-04-03T05:47:01;9.00;;;2.60;;
76725;SDS011;65651;53.154;17.916;2023-04-03T05:49:29;5.50;;;2.90;;
76725;SDS011;65651;53.154;17.916;2023-04-03T05:51:56;7.60;;;3.10;;
76725;SDS011;65651;53.154;17.916;2023-04-03T05:54:26;4.40;;;3.20;;
76725;SDS011;65651;53.154;17.916;2023-04-03T05:57:04;5.30;;;2.60;;
76725;SDS011;65651;53.154;17.916;2023-04-03T05:59:32;6.70;;;2.40;;
76725;SDS011;65651;53.154;17.916;2023-04-03T06:01:59;4.80;;;1.90;;
76725;SDS011;65651;53.154;17.916;2023-04-03T06:04:30;3.80;;;2.10;;
76725;SDS011;65651;53.154;17.916;2023-04-03T06:06:57;5.10;;;1.80;;
76725;SDS011;65651;53.154;17.916;2023-04-03T06:09:27;5.90;;;1.40;;
76725;SDS011;65651;53.154;17.916;2023-04-03T06:11:59;3.10;;;1.70;;
76725;SDS011;65651;53.154;17.916;2023-04-03T06:14:29;6.20;;;1.50;;
76725;SDS011;65651;53.154;17.916;2023-04-03T06:16:57;4.70;;;2.10;;
76725;SDS011;65651;53.154;17.916;2023-04-03T06:19:26;5.60;;;1.70;;
76725;SDS011;65651;53.154;17.916;2023-04-03T06:22:00;4.60;;;2.60;;
76725;SDS011;65651;53.154;17.916;2023-04-03T06:24:31;8.40;;;1.80;;
76725;SDS011;65651;53.154;17.916;2023-04-03T06:27:05;3.40;;;2.20;;
76725;SDS011;65651;53.154;17.916;2023-04-03T06:29:33;4.60;;;2.10;;
76725;SDS011;65651;53.154;17.916;2023-04-03T06:32:03;6.10;;;2.50;;
76725;SDS011;65651;53.154;17.916;2023-04-03T06:34:31;3.70;;;2.30;;
76725;SDS011;65651;53.154;17.916;2023-04-03T06:36:59;3.10;;;2.10;;
76725;SDS011;65651;53.154;17.916;2023-04-03T06:39:26;3.30;;;2.70;;
76725;SDS011;65651;53.154;17.916;2023-04-03T06:41:54;5.00;;;2.50;;
76725;SDS011;65651;53.154;17.916;2023-04-03T06:44:29;3.50;;;2.50;;
76725;SDS011;65651;53.154;17.916;2023-04-03T06:46:56;3.30;;;2.10;;
76725;SDS011;65651;53.154;17.916;2023-04-03T06:49:23;2.60;;;1.80;;
76725;SDS011;65651;53.154;17.916;2023-04-03T06:51:52;3.80;;;1.90;;
76725;SDS011;65651;53.154;17.916;2023-04-03T06:54:22;3.30;;;2.20;;
76725;SDS011;65651;53.154;17.916;2023-04-03T06:56:50;6.40;;;1.90;;
76725;SDS011;65651;53.154;17.916;2023-04-03T06:59:18;2.60;;;1.40;;
76725;SDS011;65651;53.154;17.916;2023-04-03T07:01:46;3.20;;;1.70;;
76725;SDS011;65651;53.154;17.916;2023-04-03T07:04:16;3.30;;;1.90;;
76725;SDS011;65651;53.154;17.916;2023-04-03T07:06:46;4.70;;;2.30;;
76725;SDS011;65651;53.154;17.916;2023-04-03T07:09:15;3.50;;;2.60;;
76725;SDS011;65651;53.154;17.916;2023-04-03T07:11:42;3.80;;;2.80;;
76725;SDS011;65651;53.154;17.916;2023-04-03T07:14:10;4.30;;;2.00;;
76725;SDS011;65651;53.154;17.916;2023-04-03T07:16:37;3.70;;;2.40;;
76725;SDS011;65651;53.154;17.916;2023-04-03T07:19:04;4.70;;;2.10;;
76725;SDS011;65651;53.154;17.916;2023-04-03T07:21:32;8.20;;;2.50;;
76725;SDS011;65651;53.154;17.916;2023-04-03T07:23:59;2.70;;;1.80;;
76725;SDS011;65651;53.154;17.916;2023-04-03T07:26:27;4.50;;;2.30;;
76725;SDS011;65651;53.154;17.916;2023-04-03T07:28:54;2.40;;;1.80;;
76725;SDS011;65651;53.154;17.916;2023-04-03T07:31:22;5.60;;;2.30;;
76725;SDS011;65651;53.154;17.916;2023-04-03T07:33:50;3.30;;;1.90;;
76725;SDS011;65651;53.154;17.916;2023-04-03T07:36:18;3.20;;;1.70;;
76725;SDS011;65651;53.154;17.916;2023-04-03T07:38:47;3.70;;;2.00;;
76725;SDS011;65651;53.154;17.916;2023-04-03T07:41:15;2.70;;;1.40;;
76725;SDS011;65651;53.154;17.916;2023-04-03T07:43:44;3.90;;;1.40;;
76725;SDS011;65651;53.154;17.916;2023-04-03T07:46:13;4.60;;;1.80;;
76725;SDS011;65651;53.154;17.916;2023-04-03T07:48:40;3.00;;;1.50;;
76725;SDS011;65651;53.154;17.916;2023-04-03T07:51:09;4.10;;;1.60;;
76725;SDS011;65651;53.154;17.916;2023-04-03T07:53:37;3.30;;;1.40;;
76725;SDS011;65651;53.154;17.916;2023-04-03T07:56:04;4.00;;;1.40;;
76725;SDS011;65651;53.154;17.916;2023-04-03T07:58:32;3.90;;;1.50;;
76725;SDS011;65651;53.154;17.916;2023-04-03T08:01:00;2.60;;;1.40;;
76725;SDS011;65651;53.154;17.916;2023-04-03T08:03:27;4.30;;;1.50;;
76725;SDS011;65651;53.154;17.916;2023-04-03T08:05:54;2.40;;;1.20;;
76725;SDS011;65651;53.154;17.916;2023-04-03T08:08:29;3.20;;;1.40;;
76725;SDS011;65651;53.154;17.916;2023-04-03T08:10:57;3.20;;;1.30;;
76725;SDS011;65651;53.154;17.916;2023-04-03T08:13:25;2.30;;;1.40;;
76725;SDS011;65651;53.154;17.916;2023-04-03T08:15:52;2.20;;;1.60;;
76725;SDS011;65651;53.154;17.916;2023-04-03T08:18:20;2.70;;;1.90;;
76725;SDS011;65651;53.154;17.916;2023-04-03T08:20:48;3.00;;;1.60;;
76725;SDS011;65651;53.154;17.916;2023-04-03T08:23:18;3.50;;;1.90;;
76725;SDS011;65651;53.154;17.916;2023-04-03T08:25:46;2.80;;;1.70;;
76725;SDS011;65651;53.154;17.916;2023-04-03T08:28:13;3.60;;;2.10;;
76725;SDS011;65651;53.154;17.916;2023-04-03T08:30:40;2.60;;;1.60;;
76725;SDS011;65651;53.154;17.916;2023-04-03T08:33:09;4.70;;;1.80;;
76725;SDS011;65651;53.154;17.916;2023-04-03T08:35:41;3.50;;;2.00;;
76725;SDS011;65651;53.154;17.916;2023-04-03T08:38:09;3.50;;;2.00;;
76725;SDS011;65651;53.154;17.916;2023-04-03T08:40:38;3.50;;;1.50;;
76725;SDS011;65651;53.154;17.916;2023-04-03T08:43:29;3.80;;;1.50;;
76725;SDS011;65651;53.154;17.916;2023-04-03T08:45:58;2.30;;;1.20;;
76725;SDS011;65651;53.154;17.916;2023-04-03T08:48:33;3.00;;;1.60;;
76725;SDS011;65651;53.154;17.916;2023-04-03T08:51:04;3.00;;;1.70;;
76725;SDS011;65651;53.154;17.916;2023-04-03T08:53:43;2.90;;;1.60;;
76725;SDS011;65651;53.154;17.916;2023-04-03T08:56:20;3.10;;;2.00;;
76725;SDS011;65651;53.154;17.916;2023-04-03T09:04:13;3.80;;;1.90;;
76725;SDS011;65651;53.154;17.916;2023-04-03T09:06:43;2.90;;;1.30;;
76725;SDS011;65651;53.154;17.916;2023-04-03T09:09:26;2.90;;;1.60;;
76725;SDS011;65651;53.154;17.916;2023-04-03T09:15:06;2.40;;;1.70;;
76725;SDS011;65651;53.154;17.916;2023-04-03T09:23:17;4.90;;;1.60;;
76725;SDS011;65651;53.154;17.916;2023-04-03T09:25:49;2.40;;;1.70;;
76725;SDS011;65651;53.154;17.916;2023-04-03T09:28:23;2.40;;;1.60;;
76725;SDS011;65651;53.154;17.916;2023-04-03T09:30:51;3.10;;;1.50;;
76725;SDS011;65651;53.154;17.916;2023-04-03T09:33:18;1.80;;;1.20;;
76725;SDS011;65651;53.154;17.916;2023-04-03T09:35:48;2.30;;;1.10;;
76725;SDS011;65651;53.154;17.916;2023-04-03T09:38:17;3.00;;;1.80;;
76725;SDS011;65651;53.154;17.916;2023-04-03T09:40:50;2.80;;;1.40;;
76725;SDS011;65651;53.154;17.916;2023-04-03T09:43:30;2.20;;;1.30;;
76725;SDS011;65651;53.154;17.916;2023-04-03T09:46:42;2.00;;;1.40;;
76725;SDS011;65651;53.154;17.916;2023-04-03T09:49:04;1.60;;;1.30;;
76725;SDS011;65651;53.154;17.916;2023-04-03T09:51:33;2.20;;;1.10;;
76725;SDS011;65651;53.154;17.916;2023-04-03T09:54:00;3.10;;;1.90;;
76725;SDS011;65651;53.154;17.916;2023-04-03T09:56:52;6.70;;;1.60;;
76725;SDS011;65651;53.154;17.916;2023-04-03T09:59:22;2.00;;;1.40;;
76725;SDS011;65651;53.154;17.916;2023-04-03T10:02:28;3.20;;;1.10;;
76725;SDS011;65651;53.154;17.916;2023-04-03T10:05:25;3.80;;;1.20;;
76725;SDS011;65651;53.154;17.916;2023-04-03T10:10:41;2.90;;;1.30;;
76725;SDS011;65651;53.154;17.916;2023-04-03T10:13:13;2.30;;;1.20;;
76725;SDS011;65651;53.154;17.916;2023-04-03T10:15:44;1.70;;;0.80;;
76725;SDS011;65651;53.154;17.916;2023-04-03T10:21:48;4.00;;;0.90;;
76725;SDS011;65651;53.154;17.916;2023-04-03T10:24:29;3.60;;;1.20;;
76725;SDS011;65651;53.154;17.916;2023-04-03T10:27:24;3.20;;;1.20;;
76725;SDS011;65651;53.154;17.916;2023-04-03T10:39:46;3.30;;;1.10;;
76725;SDS011;65651;53.154;17.916;2023-04-03T10:42:35;2.40;;;0.90;;
76725;SDS011;65651;53.154;17.916;2023-04-03T10:45:11;4.40;;;0.50;;
76725;SDS011;65651;53.154;17.916;2023-04-03T10:48:02;2.10;;;1.00;;
76725;SDS011;65651;53.154;17.916;2023-04-03T10:55:56;2.10;;;0.70;;
76725;SDS011;65651;53.154;17.916;2023-04-03T10:58:36;1.90;;;0.60;;
76725;SDS011;65651;53.154;17.916;2023-04-03T11:01:09;6.30;;;1.20;;
76725;SDS011;65651;53.154;17.916;2023-04-03T11:03:43;2.20;;;0.70;;
76725;SDS011;65651;53.154;17.916;2023-04-03T11:06:15;2.80;;;0.60;;
76725;SDS011;65651;53.154;17.916;2023-04-03T11:11:25;1.50;;;0.40;;
76725;SDS011;65651;53.154;17.916;2023-04-03T11:16:28;1.40;;;0.50;;
76725;SDS011;65651;53.154;17.916;2023-04-03T11:19:05;2.00;;;0.60;;
76725;SDS011;65651;53.154;17.916;2023-04-03T11:21:46;2.60;;;0.90;;
76725;SDS011;65651;53.154;17.916;2023-04-03T11:24:25;2.10;;;0.60;;
76725;SDS011;65651;53.154;17.916;2023-04-03T11:26:57;1.90;;;0.50;;
76725;SDS011;65651;53.154;17.916;2023-04-03T11:29:29;1.50;;;0.60;;
76725;SDS011;65651;53.154;17.916;2023-04-03T11:34:48;4.30;;;0.70;;
76725;SDS011;65651;53.154;17.916;2023-04-03T11:42:46;3.70;;;0.70;;
76725;SDS011;65651;53.154;17.916;2023-04-03T11:45:16;1.50;;;0.50;;
76725;SDS011;65651;53.154;17.916;2023-04-03T11:47:54;3.70;;;0.70;;
76725;SDS011;65651;53.154;17.916;2023-04-03T11:50:39;2.50;;;0.60;;
76725;SDS011;65651;53.154;17.916;2023-04-03T11:55:42;1.80;;;0.80;;
76725;SDS011;65651;53.154;17.916;2023-04-03T12:21:24;4.10;;;0.60;;
76725;SDS011;65651;53.154;17.916;2023-04-03T12:26:46;4.00;;;0.90;;
76725;SDS011;65651;53.154;17.916;2023-04-03T12:29:27;1.60;;;0.50;;
76725;SDS011;65651;53.154;17.916;2023-04-03T12:35:16;2.80;;;0.60;;
76725;SDS011;65651;53.154;17.916;2023-04-03T12:46:45;1.60;;;0.60;;
76725;SDS011;65651;53.154;17.916;2023-04-03T12:48:51;2.50;;;0.80;;
76725;SDS011;65651;53.154;17.916;2023-04-03T12:51:37;3.80;;;0.70;;
76725;SDS011;65651;53.154;17.916;2023-04-03T12:57:16;2.30;;;0.50;;
76725;SDS011;65651;53.154;17.916;2023-04-03T12:59:53;4.00;;;0.90;;
76725;SDS011;65651;53.154;17.916;2023-04-03T13:04:53;4.40;;;0.70;;
76725;SDS011;65651;53.154;17.916;2023-04-03T13:07:28;2.10;;;0.60;;
76725;SDS011;65651;53.154;17.916;2023-04-03T13:17:52;4.20;;;2.00;;
76725;SDS011;65651;53.154;17.916;2023-04-03T13:20:30;2.10;;;0.80;;
76725;SDS011;65651;53.154;17.916;2023-04-03T13:23:03;2.60;;;0.60;;
76725;SDS011;65651;53.154;17.916;2023-04-03T13:25:35;2.30;;;0.70;;
76725;SDS011;65651;53.154;17.916;2023-04-03T13:28:09;4.80;;;1.80;;
76725;SDS011;65651;53.154;17.916;2023-04-03T13:30:46;6.30;;;0.90;;
76725;SDS011;65651;53.154;17.916;2023-04-03T13:33:55;6.10;;;1.30;;
76725;SDS011;65651;53.154;17.916;2023-04-03T13:36:33;1.80;;;0.70;;
76725;SDS011;65651;53.154;17.916;2023-04-03T13:39:07;1.40;;;0.60;;
76725;SDS011;65651;53.154;17.916;2023-04-03T13:41:51;1.70;;;0.70;;
76725;SDS011;65651;53.154;17.916;2023-04-03T13:45:06;3.30;;;0.70;;
76725;SDS011;65651;53.154;17.916;2023-04-03T13:47:40;3.90;;;0.90;;
76725;SDS011;65651;53.154;17.916;2023-04-03T13:52:41;1.30;;;0.50;;
76725;SDS011;65651;53.154;17.916;2023-04-03T13:55:20;2.50;;;1.30;;
76725;SDS011;65651;53.154;17.916;2023-04-03T13:57:57;5.70;;;0.90;;
76725;SDS011;65651;53.154;17.916;2023-04-03T14:00:33;4.20;;;1.10;;
76725;SDS011;65651;53.154;17.916;2023-04-03T14:06:05;2.30;;;0.80;;
76725;SDS011;65651;53.154;17.916;2023-04-03T14:08:33;3.00;;;1.30;;
76725;SDS011;65651;53.154;17.916;2023-04-03T14:11:00;2.00;;;0.90;;
76725;SDS011;65651;53.154;17.916;2023-04-03T14:13:29;2.70;;;0.80;;
76725;SDS011;65651;53.154;17.916;2023-04-03T14:15:57;1.70;;;0.60;;
76725;SDS011;65651;53.154;17.916;2023-04-03T14:18:24;3.70;;;1.70;;
76725;SDS011;65651;53.154;17.916;2023-04-03T14:20:51;5.00;;;1.80;;
76725;SDS011;65651;53.154;17.916;2023-04-03T14:23:19;4.00;;;0.90;;
76725;SDS011;65651;53.154;17.916;2023-04-03T14:25:46;5.50;;;2.00;;
76725;SDS011;65651;53.154;17.916;2023-04-03T14:28:15;3.60;;;1.40;;
76725;SDS011;65651;53.154;17.916;2023-04-03T14:30:46;6.60;;;2.50;;
76725;SDS011;65651;53.154;17.916;2023-04-03T14:33:15;2.70;;;0.70;;
76725;SDS011;65651;53.154;17.916;2023-04-03T14:35:44;3.80;;;1.20;;
76725;SDS011;65651;53.154;17.916;2023-04-03T14:38:33;2.30;;;0.80;;
76725;SDS011;65651;53.154;17.916;2023-04-03T14:40:59;2.20;;;0.80;;
76725;SDS011;65651;53.154;17.916;2023-04-03T14:43:26;4.20;;;0.70;;
76725;SDS011;65651;53.154;17.916;2023-04-03T14:45:54;3.20;;;0.90;;
76725;SDS011;65651;53.154;17.916;2023-04-03T14:48:22;3.10;;;0.70;;
76725;SDS011;65651;53.154;17.916;2023-04-03T14:50:51;3.10;;;1.20;;
76725;SDS011;65651;53.154;17.916;2023-04-03T14:53:19;4.30;;;1.50;;
76725;SDS011;65651;53.154;17.916;2023-04-03T14:55:49;5.90;;;1.40;;
76725;SDS011;65651;53.154;17.916;2023-04-03T14:58:18;3.30;;;1.50;;
76725;SDS011;65651;53.154;17.916;2023-04-03T15:00:53;4.10;;;1.10;;
76725;SDS011;65651;53.154;17.916;2023-04-03T15:03:21;3.10;;;1.10;;
76725;SDS011;65651;53.154;17.916;2023-04-03T15:05:50;3.00;;;0.60;;
76725;SDS011;65651;53.154;17.916;2023-04-03T15:08:19;2.60;;;0.90;;
76725;SDS011;65651;53.154;17.916;2023-04-03T15:10:48;1.90;;;0.60;;
76725;SDS011;65651;53.154;17.916;2023-04-03T15:13:16;3.30;;;0.70;;
76725;SDS011;65651;53.154;17.916;2023-04-03T15:15:43;3.20;;;0.50;;
76725;SDS011;65651;53.154;17.916;2023-04-03T15:18:14;2.60;;;0.70;;
76725;SDS011;65651;53.154;17.916;2023-04-03T15:20:44;2.40;;;0.60;;
76725;SDS011;65651;53.154;17.916;2023-04-03T15:23:12;2.10;;;0.70;;
76725;SDS011;65651;53.154;17.916;2023-04-03T15:25:43;1.60;;;0.50;;
76725;SDS011;65651;53.154;17.916;2023-04-03T15:31:05;2.00;;;0.60;;
76725;SDS011;65651;53.154;17.916;2023-04-03T15:33:34;9.00;;;2.70;;
76725;SDS011;65651;53.154;17.916;2023-04-03T15:36:03;7.40;;;6.50;;
76725;SDS011;65651;53.154;17.916;2023-04-03T15:38:30;7.40;;;1.50;;
76725;SDS011;65651;53.154;17.916;2023-04-03T15:40:58;13.20;;;11.70;;
76725;SDS011;65651;53.154;17.916;2023-04-03T15:43:25;4.90;;;2.00;;
76725;SDS011;65651;53.154;17.916;2023-04-03T15:45:52;4.00;;;1.30;;
76725;SDS011;65651;53.154;17.916;2023-04-03T15:48:24;2.20;;;0.90;;
76725;SDS011;65651;53.154;17.916;2023-04-03T15:50:53;4.20;;;0.90;;
76725;SDS011;65651;53.154;17.916;2023-04-03T15:53:21;3.40;;;2.30;;
76725;SDS011;65651;53.154;17.916;2023-04-03T15:55:48;8.60;;;4.70;;
76725;SDS011;65651;53.154;17.916;2023-04-03T15:58:19;5.80;;;0.90;;
76725;SDS011;65651;53.154;17.916;2023-04-03T16:00:48;9.80;;;5.30;;
76725;SDS011;65651;53.154;17.916;2023-04-03T16:03:16;4.30;;;1.90;;
76725;SDS011;65651;53.154;17.916;2023-04-03T16:05:45;4.90;;;2.80;;
76725;SDS011;65651;53.154;17.916;2023-04-03T16:08:13;2.00;;;1.00;;
76725;SDS011;65651;53.154;17.916;2023-04-03T16:10:41;3.50;;;1.20;;
76725;SDS011;65651;53.154;17.916;2023-04-03T16:13:08;17.60;;;9.20;;
76725;SDS011;65651;53.154;17.916;2023-04-03T16:15:36;9.50;;;3.10;;
76725;SDS011;65651;53.154;17.916;2023-04-03T16:18:04;11.30;;;5.20;;
76725;SDS011;65651;53.154;17.916;2023-04-03T16:20:32;11.70;;;5.70;;
76725;SDS011;65651;53.154;17.916;2023-04-03T16:23:01;62.30;;;27.10;;
76725;SDS011;65651;53.154;17.916;2023-04-03T16:25:28;11.70;;;4.80;;
76725;SDS011;65651;53.154;17.916;2023-04-03T16:27:57;9.60;;;4.20;;
76725;SDS011;65651;53.154;17.916;2023-04-03T16:30:25;15.30;;;4.20;;
76725;SDS011;65651;53.154;17.916;2023-04-03T16:32:52;145.50;;;60.80;;
76725;SDS011;65651;53.154;17.916;2023-04-03T16:35:22;128.90;;;59.70;;
76725;SDS011;65651;53.154;17.916;2023-04-03T16:37:49;83.70;;;34.50;;
76725;SDS011;65651;53.154;17.916;2023-04-03T16:40:16;19.00;;;7.20;;
76725;SDS011;65651;53.154;17.916;2023-04-03T16:42:44;3.10;;;1.20;;
76725;SDS011;65651;53.154;17.916;2023-04-03T16:45:12;8.20;;;6.40;;
76725;SDS011;65651;53.154;17.916;2023-04-03T16:47:40;2.80;;;1.00;;
76725;SDS011;65651;53.154;17.916;2023-04-03T16:50:08;2.80;;;1.20;;